Daytona Beach, Florida
Current Conditions -  °F | °C
As of 11:53 AM on Sunday 23 Nov 2014 (Local Time) from KDAB Reporting Station
Overcast Overcast  
Wind Chill: 27°   Ceiling: 2100
Heat Index: 29°   Visibility: 10mi
Dew Point: 22°   Wind: 17mph
Humidity: 74%   Direction: 180°S
Pressure: 29.98"   Gusts: 25mph
Location:  29.2°N, 81.04°W
Report Text: KDAB 231653Z 18015G22KT 10SM BKN021 BKN029 BKN150 OVC250 27/22 A2998 RMK AO2 SLP151 T02670217
Loading
Personal Weather Stations






























Interactive Weather Map New forecast layout! Learn more

10-Day Weather Forecast

Advertisements
Track Severe Weather on mobile